sensor_id;sensor_type;location;lat;lon;timestamp;P1;durP1;ratioP1;P2;durP2;ratioP2
1122;SDS011;548;48.778;9.252;2023-04-15T03:54:58;17.10;;;15.93;;
1122;SDS011;548;48.778;9.252;2023-04-15T03:57:24;15.63;;;14.43;;
1122;SDS011;548;48.778;9.252;2023-04-15T03:59:51;16.93;;;15.83;;
1122;SDS011;548;48.778;9.252;2023-04-15T04:02:18;17.37;;;16.30;;
1122;SDS011;548;48.778;9.252;2023-04-15T04:04:44;18.63;;;17.23;;
1122;SDS011;548;48.778;9.252;2023-04-15T04:07:13;19.90;;;18.47;;
1122;SDS011;548;48.778;9.252;2023-04-15T04:09:42;17.70;;;16.13;;
1122;SDS011;548;48.778;9.252;2023-04-15T04:12:09;17.80;;;16.40;;
1122;SDS011;548;48.778;9.252;2023-04-15T04:14:36;18.63;;;17.33;;
1122;SDS011;548;48.778;9.252;2023-04-15T04:17:03;19.70;;;18.07;;
1122;SDS011;548;48.778;9.252;2023-04-15T04:19:30;17.83;;;16.70;;
1122;SDS011;548;48.778;9.252;2023-04-15T04:21:56;17.03;;;15.90;;
1122;SDS011;548;48.778;9.252;2023-04-15T04:24:23;17.47;;;16.10;;
1122;SDS011;548;48.778;9.252;2023-04-15T04:26:51;16.83;;;15.67;;
1122;SDS011;548;48.778;9.252;2023-04-15T04:29:18;17.37;;;15.87;;
1122;SDS011;548;48.778;9.252;2023-04-15T04:31:45;15.40;;;14.50;;
1122;SDS011;548;48.778;9.252;2023-04-15T04:34:12;17.53;;;16.10;;
1122;SDS011;548;48.778;9.252;2023-04-15T04:36:39;16.70;;;15.70;;
1122;SDS011;548;48.778;9.252;2023-04-15T04:39:06;19.37;;;17.70;;
1122;SDS011;548;48.778;9.252;2023-04-15T04:41:32;18.70;;;17.23;;
1122;SDS011;548;48.778;9.252;2023-04-15T04:44:01;18.57;;;16.77;;
1122;SDS011;548;48.778;9.252;2023-04-15T04:46:28;16.73;;;15.30;;
1122;SDS011;548;48.778;9.252;2023-04-15T04:48:55;18.90;;;17.03;;
1122;SDS011;548;48.778;9.252;2023-04-15T04:51:22;18.23;;;16.97;;
1122;SDS011;548;48.778;9.252;2023-04-15T04:53:48;17.93;;;16.50;;
1122;SDS011;548;48.778;9.252;2023-04-15T04:56:15;17.40;;;15.77;;
1122;SDS011;548;48.778;9.252;2023-04-15T04:58:42;17.23;;;15.60;;
1122;SDS011;548;48.778;9.252;2023-04-15T05:01:10;16.77;;;15.57;;
1122;SDS011;548;48.778;9.252;2023-04-15T05:03:37;17.40;;;16.13;;
1122;SDS011;548;48.778;9.252;2023-04-15T05:06:03;18.30;;;17.00;;
1122;SDS011;548;48.778;9.252;2023-04-15T05:08:32;17.90;;;16.93;;
1122;SDS011;548;48.778;9.252;2023-04-15T05:10:59;17.23;;;15.87;;
1122;SDS011;548;48.778;9.252;2023-04-15T05:13:26;16.23;;;15.00;;
1122;SDS011;548;48.778;9.252;2023-04-15T05:15:54;15.87;;;14.83;;
1122;SDS011;548;48.778;9.252;2023-04-15T05:18:22;15.97;;;14.83;;
1122;SDS011;548;48.778;9.252;2023-04-15T05:20:48;16.47;;;15.30;;
1122;SDS011;548;48.778;9.252;2023-04-15T05:23:15;17.07;;;15.53;;
1122;SDS011;548;48.778;9.252;2023-04-15T05:25:42;16.33;;;15.20;;
1122;SDS011;548;48.778;9.252;2023-04-15T05:28:09;15.10;;;14.00;;
1122;SDS011;548;48.778;9.252;2023-04-15T05:30:36;15.33;;;14.30;;
1122;SDS011;548;48.778;9.252;2023-04-15T05:33:03;13.97;;;12.97;;
1122;SDS011;548;48.778;9.252;2023-04-15T05:35:31;15.03;;;14.03;;
1122;SDS011;548;48.778;9.252;2023-04-15T05:37:58;17.43;;;15.97;;
1122;SDS011;548;48.778;9.252;2023-04-15T05:40:25;16.83;;;15.67;;
1122;SDS011;548;48.778;9.252;2023-04-15T05:42:52;16.93;;;15.33;;
1122;SDS011;548;48.778;9.252;2023-04-15T05:45:18;15.60;;;14.40;;
1122;SDS011;548;48.778;9.252;2023-04-15T05:47:45;14.80;;;13.80;;
1122;SDS011;548;48.778;9.252;2023-04-15T05:50:14;15.33;;;14.33;;
1122;SDS011;548;48.778;9.252;2023-04-15T05:52:42;14.97;;;13.97;;
1122;SDS011;548;48.778;9.252;2023-04-15T05:55:09;14.73;;;13.67;;
1122;SDS011;548;48.778;9.252;2023-04-15T05:57:36;14.07;;;13.27;;
1122;SDS011;548;48.778;9.252;2023-04-15T06:00:03;13.20;;;12.27;;
1122;SDS011;548;48.778;9.252;2023-04-15T06:02:31;14.37;;;13.30;;
1122;SDS011;548;48.778;9.252;2023-04-15T06:04:57;14.17;;;13.10;;
1122;SDS011;548;48.778;9.252;2023-04-15T06:07:24;12.83;;;12.00;;
1122;SDS011;548;48.778;9.252;2023-04-15T06:09:52;13.50;;;12.40;;
1122;SDS011;548;48.778;9.252;2023-04-15T06:12:19;13.37;;;12.60;;
1122;SDS011;548;48.778;9.252;2023-04-15T06:14:46;15.10;;;14.00;;
1122;SDS011;548;48.778;9.252;2023-04-15T06:17:13;14.50;;;13.60;;
1122;SDS011;548;48.778;9.252;2023-04-15T06:19:42;11.60;;;10.87;;
1122;SDS011;548;48.778;9.252;2023-04-15T06:22:08;13.20;;;12.10;;
1122;SDS011;548;48.778;9.252;2023-04-15T06:24:35;13.60;;;12.70;;
1122;SDS011;548;48.778;9.252;2023-04-15T06:27:03;11.90;;;11.10;;
1122;SDS011;548;48.778;9.252;2023-04-15T06:29:30;12.17;;;11.43;;
1122;SDS011;548;48.778;9.252;2023-04-15T06:31:57;12.63;;;11.83;;
1122;SDS011;548;48.778;9.252;2023-04-15T06:34:23;12.90;;;12.00;;
1122;SDS011;548;48.778;9.252;2023-04-15T06:36:50;13.77;;;12.80;;
1122;SDS011;548;48.778;9.252;2023-04-15T06:39:18;13.27;;;12.27;;
1122;SDS011;548;48.778;9.252;2023-04-15T06:41:45;13.00;;;11.70;;
1122;SDS011;548;48.778;9.252;2023-04-15T06:44:13;13.20;;;12.30;;
1122;SDS011;548;48.778;9.252;2023-04-15T06:46:40;13.57;;;12.67;;
1122;SDS011;548;48.778;9.252;2023-04-15T06:49:06;12.80;;;12.03;;
1122;SDS011;548;48.778;9.252;2023-04-15T06:51:33;12.80;;;11.50;;
1122;SDS011;548;48.778;9.252;2023-04-15T06:54:00;11.70;;;10.90;;
1122;SDS011;548;48.778;9.252;2023-04-15T06:56:29;13.90;;;12.70;;
1122;SDS011;548;48.778;9.252;2023-04-15T06:58:56;15.13;;;14.00;;
1122;SDS011;548;48.778;9.252;2023-04-15T07:01:24;13.73;;;12.70;;
1122;SDS011;548;48.778;9.252;2023-04-15T07:03:51;12.90;;;12.20;;
1122;SDS011;548;48.778;9.252;2023-04-15T07:06:18;13.50;;;12.50;;
1122;SDS011;548;48.778;9.252;2023-04-15T07:08:45;13.00;;;12.10;;
1122;SDS011;548;48.778;9.252;2023-04-15T07:11:12;18.90;;;13.30;;
1122;SDS011;548;48.778;9.252;2023-04-15T07:13:39;11.40;;;10.60;;
1122;SDS011;548;48.778;9.252;2023-04-15T07:16:06;12.93;;;11.67;;
1122;SDS011;548;48.778;9.252;2023-04-15T07:18:34;11.70;;;10.90;;
1122;SDS011;548;48.778;9.252;2023-04-15T07:21:00;11.80;;;11.10;;
1122;SDS011;548;48.778;9.252;2023-04-15T07:23:27;10.43;;;9.83;;
1122;SDS011;548;48.778;9.252;2023-04-15T07:25:54;12.80;;;11.73;;
1122;SDS011;548;48.778;9.252;2023-04-15T07:28:21;15.97;;;13.83;;
1122;SDS011;548;48.778;9.252;2023-04-15T07:30:48;19.27;;;14.70;;
1122;SDS011;548;48.778;9.252;2023-04-15T07:33:14;14.10;;;13.00;;
1122;SDS011;548;48.778;9.252;2023-04-15T07:35:42;11.60;;;10.70;;
1122;SDS011;548;48.778;9.252;2023-04-15T07:38:10;12.53;;;11.73;;
1122;SDS011;548;48.778;9.252;2023-04-15T07:40:37;11.20;;;10.30;;
1122;SDS011;548;48.778;9.252;2023-04-15T07:43:04;13.57;;;12.67;;
1122;SDS011;548;48.778;9.252;2023-04-15T07:45:31;13.40;;;12.23;;
1122;SDS011;548;48.778;9.252;2023-04-15T07:47:58;12.40;;;11.70;;
1122;SDS011;548;48.778;9.252;2023-04-15T07:50:25;10.73;;;9.90;;
1122;SDS011;548;48.778;9.252;2023-04-15T07:52:53;12.37;;;11.67;;
1122;SDS011;548;48.778;9.252;2023-04-15T07:55:21;11.67;;;11.07;;
1122;SDS011;548;48.778;9.252;2023-04-15T07:57:48;12.60;;;11.60;;
1122;SDS011;548;48.778;9.252;2023-04-15T08:00:15;13.20;;;12.40;;
1122;SDS011;548;48.778;9.252;2023-04-15T08:02:42;12.97;;;12.27;;
1122;SDS011;548;48.778;9.252;2023-04-15T08:05:10;14.60;;;12.20;;
1122;SDS011;548;48.778;9.252;2023-04-15T08:07:38;12.00;;;11.20;;
1122;SDS011;548;48.778;9.252;2023-04-15T08:10:06;12.33;;;11.57;;
1122;SDS011;548;48.778;9.252;2023-04-15T08:12:33;12.83;;;12.03;;
1122;SDS011;548;48.778;9.252;2023-04-15T08:15:00;13.40;;;12.40;;
1122;SDS011;548;48.778;9.252;2023-04-15T08:17:27;12.53;;;11.73;;
1122;SDS011;548;48.778;9.252;2023-04-15T08:19:53;12.87;;;12.23;;
1122;SDS011;548;48.778;9.252;2023-04-15T08:22:20;13.00;;;12.30;;
1122;SDS011;548;48.778;9.252;2023-04-15T08:24:47;13.33;;;12.63;;
1122;SDS011;548;48.778;9.252;2023-04-15T08:27:15;12.73;;;12.13;;
1122;SDS011;548;48.778;9.252;2023-04-15T08:29:42;13.67;;;12.57;;
1122;SDS011;548;48.778;9.252;2023-04-15T08:32:09;14.33;;;12.87;;
1122;SDS011;548;48.778;9.252;2023-04-15T08:34:36;14.50;;;13.43;;
1122;SDS011;548;48.778;9.252;2023-04-15T08:37:02;15.60;;;14.30;;
1122;SDS011;548;48.778;9.252;2023-04-15T08:39:29;14.00;;;13.30;;
1122;SDS011;548;48.778;9.252;2023-04-15T08:41:58;13.07;;;12.10;;
1122;SDS011;548;48.778;9.252;2023-04-15T08:44:28;14.50;;;13.60;;
1122;SDS011;548;48.778;9.252;2023-04-15T08:46:57;14.83;;;13.93;;
1122;SDS011;548;48.778;9.252;2023-04-15T08:49:26;13.83;;;13.13;;
1122;SDS011;548;48.778;9.252;2023-04-15T08:51:55;14.07;;;13.17;;
1122;SDS011;548;48.778;9.252;2023-04-15T08:54:24;12.77;;;11.97;;
1122;SDS011;548;48.778;9.252;2023-04-15T08:56:51;12.00;;;11.40;;
1122;SDS011;548;48.778;9.252;2023-04-15T08:59:18;16.90;;;16.00;;
1122;SDS011;548;48.778;9.252;2023-04-15T09:01:47;14.43;;;13.43;;
1122;SDS011;548;48.778;9.252;2023-04-15T09:04:15;14.73;;;13.83;;
1122;SDS011;548;48.778;9.252;2023-04-15T09:06:42;14.40;;;13.30;;
1122;SDS011;548;48.778;9.252;2023-04-15T09:09:09;13.03;;;12.13;;
1122;SDS011;548;48.778;9.252;2023-04-15T09:11:38;13.70;;;12.80;;
1122;SDS011;548;48.778;9.252;2023-04-15T09:14:05;14.43;;;13.67;;
1122;SDS011;548;48.778;9.252;2023-04-15T09:16:31;14.77;;;13.97;;
1122;SDS011;548;48.778;9.252;2023-04-15T09:19:23;13.87;;;13.07;;
1122;SDS011;548;48.778;9.252;2023-04-15T09:21:51;14.87;;;13.97;;
1122;SDS011;548;48.778;9.252;2023-04-15T09:24:20;13.00;;;12.30;;
1122;SDS011;548;48.778;9.252;2023-04-15T09:26:47;14.13;;;13.20;;
1122;SDS011;548;48.778;9.252;2023-04-15T09:29:19;13.20;;;12.30;;
1122;SDS011;548;48.778;9.252;2023-04-15T09:31:49;13.30;;;12.50;;
1122;SDS011;548;48.778;9.252;2023-04-15T09:34:17;14.10;;;13.40;;
1122;SDS011;548;48.778;9.252;2023-04-15T09:36:52;14.63;;;13.60;;
1122;SDS011;548;48.778;9.252;2023-04-15T09:39:20;13.73;;;12.60;;
1122;SDS011;548;48.778;9.252;2023-04-15T09:41:46;13.87;;;12.97;;
1122;SDS011;548;48.778;9.252;2023-04-15T09:44:30;13.47;;;12.37;;
1122;SDS011;548;48.778;9.252;2023-04-15T09:46:57;13.83;;;13.10;;
1122;SDS011;548;48.778;9.252;2023-04-15T09:49:26;14.17;;;13.30;;
1122;SDS011;548;48.778;9.252;2023-04-15T09:51:56;14.30;;;13.47;;
1122;SDS011;548;48.778;9.252;2023-04-15T09:54:23;13.10;;;12.40;;
1122;SDS011;548;48.778;9.252;2023-04-15T09:56:50;13.70;;;13.00;;
1122;SDS011;548;48.778;9.252;2023-04-15T09:59:17;11.90;;;11.20;;
1122;SDS011;548;48.778;9.252;2023-04-15T10:01:43;13.27;;;12.67;;
1122;SDS011;548;48.778;9.252;2023-04-15T10:04:10;13.87;;;13.17;;
1122;SDS011;548;48.778;9.252;2023-04-15T10:06:39;14.17;;;13.27;;
1122;SDS011;548;48.778;9.252;2023-04-15T10:09:06;12.80;;;12.10;;
1122;SDS011;548;48.778;9.252;2023-04-15T10:11:33;12.17;;;11.47;;
1122;SDS011;548;48.778;9.252;2023-04-15T10:14:00;12.70;;;11.70;;
1122;SDS011;548;48.778;9.252;2023-04-15T10:16:27;12.23;;;11.40;;
1122;SDS011;548;48.778;9.252;2023-04-15T10:18:57;13.50;;;12.70;;
1122;SDS011;548;48.778;9.252;2023-04-15T10:21:28;13.70;;;13.00;;
1122;SDS011;548;48.778;9.252;2023-04-15T10:23:57;13.53;;;12.87;;
1122;SDS011;548;48.778;9.252;2023-04-15T10:26:25;13.30;;;12.70;;
1122;SDS011;548;48.778;9.252;2023-04-15T10:28:53;12.50;;;11.90;;
1122;SDS011;548;48.778;9.252;2023-04-15T10:31:20;13.33;;;12.63;;
1122;SDS011;548;48.778;9.252;2023-04-15T10:33:48;13.07;;;12.37;;
1122;SDS011;548;48.778;9.252;2023-04-15T10:36:16;15.10;;;14.27;;
1122;SDS011;548;48.778;9.252;2023-04-15T10:38:44;12.27;;;11.47;;
1122;SDS011;548;48.778;9.252;2023-04-15T10:41:13;12.80;;;12.20;;
1122;SDS011;548;48.778;9.252;2023-04-15T10:43:45;11.50;;;11.00;;
1122;SDS011;548;48.778;9.252;2023-04-15T10:46:18;13.13;;;12.53;;
1122;SDS011;548;48.778;9.252;2023-04-15T10:48:48;12.93;;;12.23;;
1122;SDS011;548;48.778;9.252;2023-04-15T10:51:15;11.80;;;11.30;;
1122;SDS011;548;48.778;9.252;2023-04-15T10:53:42;11.63;;;11.03;;
1122;SDS011;548;48.778;9.252;2023-04-15T10:56:09;13.93;;;13.10;;
1122;SDS011;548;48.778;9.252;2023-04-15T10:58:43;12.73;;;11.97;;
1122;SDS011;548;48.778;9.252;2023-04-15T11:01:10;13.63;;;13.00;;
1122;SDS011;548;48.778;9.252;2023-04-15T11:03:38;11.30;;;10.70;;
1122;SDS011;548;48.778;9.252;2023-04-15T11:06:07;12.17;;;11.17;;
1122;SDS011;548;48.778;9.252;2023-04-15T11:08:54;12.73;;;12.03;;
1122;SDS011;548;48.778;9.252;2023-04-15T11:11:23;12.97;;;12.37;;
1122;SDS011;548;48.778;9.252;2023-04-15T11:14:30;11.97;;;11.37;;
1122;SDS011;548;48.778;9.252;2023-04-15T11:16:59;13.80;;;12.70;;
1122;SDS011;548;48.778;9.252;2023-04-15T11:19:26;14.57;;;13.80;;
1122;SDS011;548;48.778;9.252;2023-04-15T11:22:05;12.63;;;12.03;;
1122;SDS011;548;48.778;9.252;2023-04-15T11:24:32;14.53;;;13.83;;
1122;SDS011;548;48.778;9.252;2023-04-15T11:27:00;13.40;;;12.30;;
1122;SDS011;548;48.778;9.252;2023-04-15T11:29:27;13.00;;;12.40;;
1122;SDS011;548;48.778;9.252;2023-04-15T11:32:05;13.50;;;12.77;;
1122;SDS011;548;48.778;9.252;2023-04-15T11:34:34;13.73;;;12.80;;
1122;SDS011;548;48.778;9.252;2023-04-15T11:37:02;14.23;;;13.43;;
1122;SDS011;548;48.778;9.252;2023-04-15T11:39:30;14.33;;;13.50;;
1122;SDS011;548;48.778;9.252;2023-04-15T11:41:57;13.77;;;12.90;;
1122;SDS011;548;48.778;9.252;2023-04-15T11:44:23;14.50;;;13.80;;
1122;SDS011;548;48.778;9.252;2023-04-15T11:46:51;12.70;;;12.00;;
1122;SDS011;548;48.778;9.252;2023-04-15T11:49:26;13.80;;;13.17;;
1122;SDS011;548;48.778;9.252;2023-04-15T11:51:54;12.23;;;11.33;;
1122;SDS011;548;48.778;9.252;2023-04-15T11:54:21;13.83;;;13.03;;
1122;SDS011;548;48.778;9.252;2023-04-15T11:56:49;15.13;;;14.23;;
1122;SDS011;548;48.778;9.252;2023-04-15T11:59:16;16.40;;;15.40;;
1122;SDS011;548;48.778;9.252;2023-04-15T12:01:43;20.60;;;19.60;;
1122;SDS011;548;48.778;9.252;2023-04-15T12:04:13;23.10;;;22.00;;
1122;SDS011;548;48.778;9.252;2023-04-15T12:06:41;21.40;;;19.93;;
1122;SDS011;548;48.778;9.252;2023-04-15T12:09:08;17.50;;;16.30;;
1122;SDS011;548;48.778;9.252;2023-04-15T12:11:42;14.40;;;13.30;;
1122;SDS011;548;48.778;9.252;2023-04-15T12:14:12;14.77;;;13.80;;
1122;SDS011;548;48.778;9.252;2023-04-15T12:16:45;14.20;;;13.30;;
1122;SDS011;548;48.778;9.252;2023-04-15T12:19:15;13.50;;;12.60;;
1122;SDS011;548;48.778;9.252;2023-04-15T12:21:44;12.63;;;11.73;;
1122;SDS011;548;48.778;9.252;2023-04-15T12:24:12;12.53;;;11.73;;
1122;SDS011;548;48.778;9.252;2023-04-15T12:26:43;12.87;;;12.00;;
1122;SDS011;548;48.778;9.252;2023-04-15T12:29:11;16.43;;;15.53;;
1122;SDS011;548;48.778;9.252;2023-04-15T12:31:45;31.57;;;29.47;;
1122;SDS011;548;48.778;9.252;2023-04-15T12:34:16;34.73;;;32.63;;
1122;SDS011;548;48.778;9.252;2023-04-15T12:36:43;35.30;;;32.90;;
1122;SDS011;548;48.778;9.252;2023-04-15T12:39:11;35.30;;;32.70;;
1122;SDS011;548;48.778;9.252;2023-04-15T12:41:38;35.70;;;33.27;;
1122;SDS011;548;48.778;9.252;2023-04-15T12:44:04;38.47;;;35.77;;
1122;SDS011;548;48.778;9.252;2023-04-15T12:46:31;37.40;;;34.90;;
1122;SDS011;548;48.778;9.252;2023-04-15T12:48:58;38.43;;;35.73;;
1122;SDS011;548;48.778;9.252;2023-04-15T12:51:26;38.43;;;35.83;;
1122;SDS011;548;48.778;9.252;2023-04-15T12:53:53;36.17;;;33.73;;
1122;SDS011;548;48.778;9.252;2023-04-15T12:56:20;39.07;;;36.50;;
1122;SDS011;548;48.778;9.252;2023-04-15T12:58:47;37.63;;;35.03;;
1122;SDS011;548;48.778;9.252;2023-04-15T13:01:14;35.53;;;33.23;;
1122;SDS011;548;48.778;9.252;2023-04-15T13:03:41;34.37;;;32.50;;
1122;SDS011;548;48.778;9.252;2023-04-15T13:06:08;34.50;;;32.70;;
1122;SDS011;548;48.778;9.252;2023-04-15T13:08:36;32.33;;;30.33;;
1122;SDS011;548;48.778;9.252;2023-04-15T13:11:02;33.77;;;32.10;;
1122;SDS011;548;48.778;9.252;2023-04-15T13:13:29;28.53;;;27.03;;
1122;SDS011;548;48.778;9.252;2023-04-15T13:15:56;24.13;;;23.03;;
1122;SDS011;548;48.778;9.252;2023-04-15T13:18:23;23.33;;;22.23;;
1122;SDS011;548;48.778;9.252;2023-04-15T13:20:50;22.93;;;21.63;;
1122;SDS011;548;48.778;9.252;2023-04-15T13:23:17;18.70;;;17.90;;
1122;SDS011;548;48.778;9.252;2023-04-15T13:25:45;21.20;;;19.93;;
1122;SDS011;548;48.778;9.252;2023-04-15T13:28:11;20.33;;;19.53;;
1122;SDS011;548;48.778;9.252;2023-04-15T13:30:38;17.90;;;17.10;;
1122;SDS011;548;48.778;9.252;2023-04-15T13:33:05;17.87;;;17.13;;
1122;SDS011;548;48.778;9.252;2023-04-15T13:35:31;17.43;;;16.70;;
1122;SDS011;548;48.778;9.252;2023-04-15T13:37:58;16.57;;;15.77;;
1122;SDS011;548;48.778;9.252;2023-04-15T13:40:25;14.87;;;14.27;;
1122;SDS011;548;48.778;9.252;2023-04-15T13:42:53;14.97;;;14.17;;
1122;SDS011;548;48.778;9.252;2023-04-15T13:45:20;14.27;;;13.67;;
1122;SDS011;548;48.778;9.252;2023-04-15T13:47:46;14.60;;;14.00;;
1122;SDS011;548;48.778;9.252;2023-04-15T13:50:13;16.00;;;14.90;;
1122;SDS011;548;48.778;9.252;2023-04-15T13:52:40;13.97;;;13.37;;
1122;SDS011;548;48.778;9.252;2023-04-15T13:55:07;11.57;;;11.07;;
1122;SDS011;548;48.778;9.252;2023-04-15T13:57:34;12.30;;;11.70;;
1122;SDS011;548;48.778;9.252;2023-04-15T14:00:03;11.70;;;11.20;;
1122;SDS011;548;48.778;9.252;2023-04-15T14:02:30;12.20;;;11.70;;
1122;SDS011;548;48.778;9.252;2023-04-15T14:04:57;11.73;;;11.23;;
1122;SDS011;548;48.778;9.252;2023-04-15T14:07:24;11.83;;;11.43;;
1122;SDS011;548;48.778;9.252;2023-04-15T14:09:50;11.77;;;11.27;;
1122;SDS011;548;48.778;9.252;2023-04-15T14:12:17;11.20;;;10.60;;
1122;SDS011;548;48.778;9.252;2023-04-15T14:14:44;10.97;;;10.57;;
1122;SDS011;548;48.778;9.252;2023-04-15T14:17:12;10.80;;;10.40;;
1122;SDS011;548;48.778;9.252;2023-04-15T14:19:39;11.87;;;11.37;;
1122;SDS011;548;48.778;9.252;2023-04-15T14:22:06;11.60;;;11.00;;
1122;SDS011;548;48.778;9.252;2023-04-15T14:24:32;11.03;;;10.43;;
1122;SDS011;548;48.778;9.252;2023-04-15T14:26:59;11.10;;;10.60;;
1122;SDS011;548;48.778;9.252;2023-04-15T14:29:26;9.97;;;9.67;;
1122;SDS011;548;48.778;9.252;2023-04-15T14:31:53;11.00;;;10.47;;
1122;SDS011;548;48.778;9.252;2023-04-15T14:34:22;11.43;;;10.93;;
1122;SDS011;548;48.778;9.252;2023-04-15T14:36:50;10.80;;;10.40;;
1122;SDS011;548;48.778;9.252;2023-04-15T14:39:17;10.43;;;10.00;;
1122;SDS011;548;48.778;9.252;2023-04-15T14:41:44;11.00;;;10.60;;
1122;SDS011;548;48.778;9.252;2023-04-15T14:44:11;11.63;;;11.13;;
1122;SDS011;548;48.778;9.252;2023-04-15T14:46:38;9.60;;;9.20;;
1122;SDS011;548;48.778;9.252;2023-04-15T14:49:05;10.73;;;10.33;;
1122;SDS011;548;48.778;9.252;2023-04-15T14:51:33;10.03;;;9.60;;
1122;SDS011;548;48.778;9.252;2023-04-15T14:54:00;11.73;;;11.33;;
1122;SDS011;548;48.778;9.252;2023-04-15T14:56:27;11.33;;;10.87;;
1122;SDS011;548;48.778;9.252;2023-04-15T14:58:53;9.20;;;8.90;;
1122;SDS011;548;48.778;9.252;2023-04-15T15:01:20;8.83;;;8.53;;
1122;SDS011;548;48.778;9.252;2023-04-15T15:03:47;11.20;;;10.80;;
1122;SDS011;548;48.778;9.252;2023-04-15T15:06:15;10.60;;;10.20;;
1122;SDS011;548;48.778;9.252;2023-04-15T15:08:43;10.60;;;10.20;;
1122;SDS011;548;48.778;9.252;2023-04-15T15:11:11;11.30;;;10.90;;
1122;SDS011;548;48.778;9.252;2023-04-15T15:13:37;10.80;;;10.40;;
1122;SDS011;548;48.778;9.252;2023-04-15T15:16:04;12.20;;;11.70;;
1122;SDS011;548;48.778;9.252;2023-04-15T15:18:31;11.57;;;11.07;;
1122;SDS011;548;48.778;9.252;2023-04-15T15:20:58;10.60;;;10.20;;
1122;SDS011;548;48.778;9.252;2023-04-15T15:23:25;11.57;;;11.07;;
1122;SDS011;548;48.778;9.252;2023-04-15T15:25:53;11.30;;;10.90;;
1122;SDS011;548;48.778;9.252;2023-04-15T15:28:20;11.20;;;10.63;;
1122;SDS011;548;48.778;9.252;2023-04-15T15:30:47;10.77;;;10.27;;
1122;SDS011;548;48.778;9.252;2023-04-15T15:33:13;10.73;;;10.33;;
1122;SDS011;548;48.778;9.252;2023-04-15T15:35:40;11.70;;;11.20;;
1122;SDS011;548;48.778;9.252;2023-04-15T15:38:07;11.70;;;11.30;;
1122;SDS011;548;48.778;9.252;2023-04-15T15:40:36;11.67;;;11.10;;
1122;SDS011;548;48.778;9.252;2023-04-15T15:43:04;10.83;;;10.43;;
1122;SDS011;548;48.778;9.252;2023-04-15T15:45:30;11.90;;;11.30;;
1122;SDS011;548;48.778;9.252;2023-04-15T15:47:57;10.83;;;10.33;;
1122;SDS011;548;48.778;9.252;2023-04-15T15:50:24;12.17;;;11.50;;
1122;SDS011;548;48.778;9.252;2023-04-15T15:52:51;10.93;;;10.40;;
1122;SDS011;548;48.778;9.252;2023-04-15T15:55:17;12.17;;;11.60;;
1122;SDS011;548;48.778;9.252;2023-04-15T15:57:44;10.30;;;9.63;;
1122;SDS011;548;48.778;9.252;2023-04-15T16:00:12;11.80;;;11.10;;
1122;SDS011;548;48.778;9.252;2023-04-15T16:02:39;10.67;;;9.90;;
1122;SDS011;548;48.778;9.252;2023-04-15T16:05:07;14.20;;;13.60;;
1122;SDS011;548;48.778;9.252;2023-04-15T16:07:34;17.60;;;16.80;;
1122;SDS011;548;48.778;9.252;2023-04-15T16:10:00;17.10;;;16.40;;
1122;SDS011;548;48.778;9.252;2023-04-15T16:12:27;17.30;;;16.50;;
1122;SDS011;548;48.778;9.252;2023-04-15T16:14:54;18.57;;;17.77;;
1122;SDS011;548;48.778;9.252;2023-04-15T16:17:22;18.50;;;17.70;;
1122;SDS011;548;48.778;9.252;2023-04-15T16:19:48;19.47;;;18.57;;
1122;SDS011;548;48.778;9.252;2023-04-15T16:22:15;22.07;;;21.27;;
1122;SDS011;548;48.778;9.252;2023-04-15T16:24:42;22.57;;;21.67;;
1122;SDS011;548;48.778;9.252;2023-04-15T16:27:08;27.00;;;25.70;;
1122;SDS011;548;48.778;9.252;2023-04-15T16:29:40;24.60;;;23.40;;
1122;SDS011;548;48.778;9.252;2023-04-15T16:32:06;25.47;;;24.30;;
1122;SDS011;548;48.778;9.252;2023-04-15T16:34:34;27.93;;;26.43;;
1122;SDS011;548;48.778;9.252;2023-04-15T16:37:03;31.60;;;30.00;;
1122;SDS011;548;48.778;9.252;2023-04-15T16:39:30;33.87;;;32.13;;
1122;SDS011;548;48.778;9.252;2023-04-15T16:41:56;36.63;;;34.53;;
1122;SDS011;548;48.778;9.252;2023-04-15T16:44:24;35.07;;;33.23;;
1122;SDS011;548;48.778;9.252;2023-04-15T16:46:50;34.60;;;32.80;;
1122;SDS011;548;48.778;9.252;2023-04-15T16:49:17;34.93;;;33.03;;
1122;SDS011;548;48.778;9.252;2023-04-15T16:51:45;35.33;;;33.43;;
1122;SDS011;548;48.778;9.252;2023-04-15T16:54:12;35.37;;;33.37;;
1122;SDS011;548;48.778;9.252;2023-04-15T16:56:38;34.77;;;32.97;;
1122;SDS011;548;48.778;9.252;2023-04-15T16:59:05;33.33;;;31.33;;
1122;SDS011;548;48.778;9.252;2023-04-15T17:01:32;35.57;;;33.47;;
1122;SDS011;548;48.778;9.252;2023-04-15T17:03:58;34.73;;;32.63;;
1122;SDS011;548;48.778;9.252;2023-04-15T17:06:25;35.20;;;33.10;;
1122;SDS011;548;48.778;9.252;2023-04-15T17:08:53;35.00;;;33.00;;
1122;SDS011;548;48.778;9.252;2023-04-15T17:11:20;33.80;;;31.50;;
1122;SDS011;548;48.778;9.252;2023-04-15T17:13:47;34.73;;;32.43;;
1122;SDS011;548;48.778;9.252;2023-04-15T17:16:14;34.50;;;31.97;;
1122;SDS011;548;48.778;9.252;2023-04-15T17:18:40;34.93;;;32.67;;
1122;SDS011;548;48.778;9.252;2023-04-15T17:21:07;33.90;;;31.77;;
1122;SDS011;548;48.778;9.252;2023-04-15T17:23:37;33.80;;;31.50;;
1122;SDS011;548;48.778;9.252;2023-04-15T17:26:05;35.37;;;33.10;;
1122;SDS011;548;48.778;9.252;2023-04-15T17:28:31;34.73;;;32.53;;
1122;SDS011;548;48.778;9.252;2023-04-15T17:30:58;33.47;;;31.27;;
1122;SDS011;548;48.778;9.252;2023-04-15T17:33:25;34.97;;;32.80;;
1122;SDS011;548;48.778;9.252;2023-04-15T17:35:52;34.10;;;31.90;;
1122;SDS011;548;48.778;9.252;2023-04-15T17:38:18;37.13;;;34.77;;
1122;SDS011;548;48.778;9.252;2023-04-15T17:40:45;34.67;;;32.67;;
1122;SDS011;548;48.778;9.252;2023-04-15T17:43:13;34.53;;;32.33;;
1122;SDS011;548;48.778;9.252;2023-04-15T17:45:40;34.00;;;32.00;;
1122;SDS011;548;48.778;9.252;2023-04-15T17:48:07;33.63;;;31.73;;
1122;SDS011;548;48.778;9.252;2023-04-15T17:50:34;33.57;;;31.53;;
1122;SDS011;548;48.778;9.252;2023-04-15T17:53:02;33.23;;;31.43;;
1122;SDS011;548;48.778;9.252;2023-04-15T17:55:29;34.27;;;32.03;;
1122;SDS011;548;48.778;9.252;2023-04-15T17:57:57;35.40;;;33.30;;
1122;SDS011;548;48.778;9.252;2023-04-15T18:00:25;35.00;;;33.00;;
1122;SDS011;548;48.778;9.252;2023-04-15T18:02:51;34.20;;;32.20;;
1122;SDS011;548;48.778;9.252;2023-04-15T18:05:18;33.87;;;32.07;;
1122;SDS011;548;48.778;9.252;2023-04-15T18:07:45;34.10;;;32.10;;
1122;SDS011;548;48.778;9.252;2023-04-15T18:10:12;33.10;;;31.30;;
1122;SDS011;548;48.778;9.252;2023-04-15T18:12:38;32.93;;;31.10;;
1122;SDS011;548;48.778;9.252;2023-04-15T18:15:05;32.17;;;30.50;;
1122;SDS011;548;48.778;9.252;2023-04-15T18:17:35;33.57;;;31.80;;
1122;SDS011;548;48.778;9.252;2023-04-15T18:20:02;33.13;;;31.33;;
1122;SDS011;548;48.778;9.252;2023-04-15T18:22:28;34.00;;;32.00;;
1122;SDS011;548;48.778;9.252;2023-04-15T18:24:55;33.70;;;31.50;;
1122;SDS011;548;48.778;9.252;2023-04-15T18:27:26;35.00;;;33.10;;
1122;SDS011;548;48.778;9.252;2023-04-15T18:29:53;34.07;;;32.17;;
1122;SDS011;548;48.778;9.252;2023-04-15T18:32:20;32.30;;;30.57;;
1122;SDS011;548;48.778;9.252;2023-04-15T18:34:48;33.40;;;31.60;;
1122;SDS011;548;48.778;9.252;2023-04-15T18:37:15;32.10;;;30.37;;
1122;SDS011;548;48.778;9.252;2023-04-15T18:39:41;31.87;;;30.23;;
1122;SDS011;548;48.778;9.252;2023-04-15T18:42:08;33.97;;;32.07;;
1122;SDS011;548;48.778;9.252;2023-04-15T18:44:35;32.40;;;30.70;;
1122;SDS011;548;48.778;9.252;2023-04-15T18:47:02;32.60;;;30.80;;
1122;SDS011;548;48.778;9.252;2023-04-15T18:49:29;32.63;;;30.83;;
1122;SDS011;548;48.778;9.252;2023-04-15T18:51:58;31.97;;;30.30;;
1122;SDS011;548;48.778;9.252;2023-04-15T18:54:25;34.03;;;32.30;;
1122;SDS011;548;48.778;9.252;2023-04-15T18:56:51;33.23;;;31.43;;
1122;SDS011;548;48.778;9.252;2023-04-15T18:59:18;33.90;;;32.20;;